Flight Track Log - Related Links

Times and Time Zones

All times are in EDT time to prevent confusion due to time zone crossing. See the SKW5198 flight status page for this flight to view local times or setup timezone preferences in your user account.

Time Position Orientation Groundspeed Altitude Reporting Facility
EDT Latitude Longitude Course Direction KTS MPH feet Rate Location/Type
Sat 11:23:20 AM 29.9617 -95.3436 210° Southwest 148 170 900  Level Houston Center
Sat 11:23:45 AM 29.9439 -95.3553 210° Southwest 169 194 1,700 1,884 Climbing Houston Center
Sat 11:24:46 AM 29.9006 -95.4089 227° Southwest 245 282 3,600 1,535 Climbing Houston Center
Sat 11:25:11 AM 29.8900 -95.4211 225° Southwest 230 265 3,900 393 Climbing Houston Center
Sat 11:25:47 AM 29.8511 -95.4653 225° Southwest 253 291 4,000 97 Climbing Houston Center
Sat 11:26:13 AM 29.8303 -95.4894 225° Southwest 249 287 4,000 358 Level Houston Center
Sat 11:26:54 AM 29.8097 -95.5425 246° West 257 296 4,400 677 Climbing Houston Center
Sat 11:27:15 AM 29.8092 -95.5633 268° West 256 295 4,700 1,355 Climbing Houston Center
Sat 11:27:56 AM 29.8089 -95.6269 270° West 271 312 5,800 1,406 Climbing Houston Center
Sat 11:28:19 AM 29.8142 -95.6481 286° West 264 304 6,200 2,300 Climbing Houston Center
Sat 11:28:56 AM 29.8272 -95.7139 283° West 289 333 8,100 2,754 Climbing Houston Center
Sat 11:29:20 AM 29.8333 -95.7361 288° West 281 323 9,000 2,442 Climbing Houston Center
Sat 11:30:22 AM 29.8528 -95.8272 284° West 291 335 11,600 2,565 Climbing Houston Center
Sat 11:31:24 AM 29.8744 -95.9214 285° West 301 346 14,300 2,129 Climbing Houston Center
Sat 11:32:26 AM 29.8989 -96.0336 284° West 313 360 16,000 823 Climbing Houston Center
Sat 11:33:28 AM 29.9175 -96.1375 282° West 329 379 16,000  Level Houston Center
Sat 11:34:30 AM 29.9347 -96.2319 282° West 306 352 16,000 -144 Level Houston Center
Sat 11:35:33 AM 29.9544 -96.3369 282° West 288 331 15,700 -624 Descending Houston Center
Sat 11:36:35 AM 29.9700 -96.4264 281° West 286 329 14,700 -968 Descending Houston Center
Sat 11:37:37 AM 29.9867 -96.5189 282° West 294 338 13,700 -968 Descending Houston Center
Sat 11:38:39 AM 30.0039 -96.6111 282° West 297 342 12,700 -823 Descending Houston Center
Sat 11:39:41 AM 30.0206 -96.7050 282° West 297 342 12,000 -339 Descending Houston Center
Sat 11:40:43 AM 30.0389 -96.8078 282° West 280 322 12,000  Level Houston Center
Sat 11:41:45 AM 30.0542 -96.8858 283° West 259 298 12,000 -528 Level Houston Center
Sat 11:42:48 AM 30.0836 -96.9611 294° West 256 295 10,900 -1,344 Descending Houston Center
Sat 11:43:50 AM 30.1156 -97.0400 295° West 267 307 9,200 -1,790 Descending Houston Center
Sat 11:44:52 AM 30.1472 -97.1264 293° West 286 329 7,200 -1,500 Descending Houston Center
Sat 11:45:54 AM 30.1803 -97.2111 294° West 290 334 6,100 -581 Descending Houston Center
Sat 11:46:56 AM 30.2208 -97.3081 296° West 285 328 6,000 -435 Descending Houston Center
Sat 11:47:58 AM 30.2550 -97.3908 296° West 284 327 5,200 -912 Descending Houston Center
Sat 11:49:01 AM 30.2994 -97.4617 306° West 280 322 4,100 -1,056 Descending Houston Center
Sat 11:50:03 AM 30.3600 -97.5075 327° Northwest 262 302 3,000 -774 Descending Houston Center
Sat 11:51:05 AM 30.3906 -97.5692 300° West 252 290 2,500 -242 Descending Houston Center
Sat 11:52:07 AM 30.3889 -97.6417 268° West 235 270 2,500  Level Houston Center
Sat 11:53:09 AM 30.3253 -97.6628 196° South 219 252 2,500 -194 Level Houston Center
Sat 11:54:11 AM 30.2878 -97.6611 178° South 169 194 2,100 -528 Descending Houston Center
Sat 11:55:14 AM 30.2539 -97.6592 177° South 139 160 1,400 -480 Descending Houston Center
Sat 11:56:16 AM 30.2153 -97.6575 178° South 130 150 1,100 -290 Descending Houston Center

Login

Don't have an account? Register now (free) for customized features, flight alerts, and more!